sensor_id;sensor_type;location;lat;lon;timestamp;P1;durP1;ratioP1;P2;durP2;ratioP2
36259;SDS011;22296;50.824;5.644;2022-10-16T00:01:24;0.80;;;0.70;;
36259;SDS011;22296;50.824;5.644;2022-10-16T00:03:53;1.08;;;0.70;;
36259;SDS011;22296;50.824;5.644;2022-10-16T00:06:21;0.90;;;0.60;;
36259;SDS011;22296;50.824;5.644;2022-10-16T00:08:49;0.93;;;0.80;;
36259;SDS011;22296;50.824;5.644;2022-10-16T00:11:17;0.70;;;0.55;;
36259;SDS011;22296;50.824;5.644;2022-10-16T00:13:46;1.15;;;0.60;;
36259;SDS011;22296;50.824;5.644;2022-10-16T00:16:14;2.05;;;0.73;;
36259;SDS011;22296;50.824;5.644;2022-10-16T00:18:42;0.98;;;0.68;;
36259;SDS011;22296;50.824;5.644;2022-10-16T00:21:13;1.25;;;0.63;;
36259;SDS011;22296;50.824;5.644;2022-10-16T00:23:45;3.03;;;0.77;;
36259;SDS011;22296;50.824;5.644;2022-10-16T00:26:13;1.15;;;0.63;;
36259;SDS011;22296;50.824;5.644;2022-10-16T00:28:41;0.68;;;0.60;;
36259;SDS011;22296;50.824;5.644;2022-10-16T00:31:09;1.23;;;0.80;;
36259;SDS011;22296;50.824;5.644;2022-10-16T00:33:38;0.77;;;0.60;;
36259;SDS011;22296;50.824;5.644;2022-10-16T00:36:06;1.35;;;0.77;;
36259;SDS011;22296;50.824;5.644;2022-10-16T00:38:35;0.85;;;0.50;;
36259;SDS011;22296;50.824;5.644;2022-10-16T00:41:04;0.60;;;0.60;;
36259;SDS011;22296;50.824;5.644;2022-10-16T00:46:17;1.50;;;0.60;;
36259;SDS011;22296;50.824;5.644;2022-10-16T00:49:00;1.02;;;0.40;;
36259;SDS011;22296;50.824;5.644;2022-10-16T00:51:30;0.75;;;0.68;;
36259;SDS011;22296;50.824;5.644;2022-10-16T00:54:09;0.43;;;0.35;;
36259;SDS011;22296;50.824;5.644;2022-10-16T00:56:40;0.65;;;0.40;;
36259;SDS011;22296;50.824;5.644;2022-10-16T00:59:16;0.70;;;0.53;;
36259;SDS011;22296;50.824;5.644;2022-10-16T01:01:52;1.25;;;0.60;;
36259;SDS011;22296;50.824;5.644;2022-10-16T01:04:19;0.60;;;0.50;;
36259;SDS011;22296;50.824;5.644;2022-10-16T01:07:01;0.45;;;0.40;;
36259;SDS011;22296;50.824;5.644;2022-10-16T01:15:47;0.77;;;0.73;;
36259;SDS011;22296;50.824;5.644;2022-10-16T01:18:25;0.70;;;0.50;;
36259;SDS011;22296;50.824;5.644;2022-10-16T01:21:01;0.88;;;0.60;;
36259;SDS011;22296;50.824;5.644;2022-10-16T01:23:55;0.80;;;0.60;;
36259;SDS011;22296;50.824;5.644;2022-10-16T01:29:32;0.70;;;0.60;;
36259;SDS011;22296;50.824;5.644;2022-10-16T01:32:19;1.15;;;0.65;;
36259;SDS011;22296;50.824;5.644;2022-10-16T01:37:32;0.90;;;0.65;;
36259;SDS011;22296;50.824;5.644;2022-10-16T01:40:12;0.82;;;0.52;;
36259;SDS011;22296;50.824;5.644;2022-10-16T01:42:44;0.80;;;0.60;;
36259;SDS011;22296;50.824;5.644;2022-10-16T01:45:15;1.27;;;0.70;;
36259;SDS011;22296;50.824;5.644;2022-10-16T01:47:45;1.50;;;0.65;;
36259;SDS011;22296;50.824;5.644;2022-10-16T01:50:14;0.57;;;0.40;;
36259;SDS011;22296;50.824;5.644;2022-10-16T01:52:45;0.60;;;0.55;;
36259;SDS011;22296;50.824;5.644;2022-10-16T01:55:25;1.00;;;0.55;;
36259;SDS011;22296;50.824;5.644;2022-10-16T01:57:57;1.00;;;0.60;;
36259;SDS011;22296;50.824;5.644;2022-10-16T02:00:27;0.65;;;0.60;;
36259;SDS011;22296;50.824;5.644;2022-10-16T02:02:55;0.80;;;0.70;;
36259;SDS011;22296;50.824;5.644;2022-10-16T02:05:32;0.60;;;0.52;;
36259;SDS011;22296;50.824;5.644;2022-10-16T02:08:05;0.77;;;0.40;;
36259;SDS011;22296;50.824;5.644;2022-10-16T02:10:32;0.70;;;0.50;;
36259;SDS011;22296;50.824;5.644;2022-10-16T02:15:45;1.00;;;0.63;;
36259;SDS011;22296;50.824;5.644;2022-10-16T02:18:12;0.93;;;0.52;;
36259;SDS011;22296;50.824;5.644;2022-10-16T02:20:45;1.08;;;0.60;;
36259;SDS011;22296;50.824;5.644;2022-10-16T02:26:29;0.50;;;0.40;;
36259;SDS011;22296;50.824;5.644;2022-10-16T02:29:02;0.57;;;0.47;;
36259;SDS011;22296;50.824;5.644;2022-10-16T02:31:35;0.70;;;0.43;;
36259;SDS011;22296;50.824;5.644;2022-10-16T02:34:07;0.63;;;0.32;;
36259;SDS011;22296;50.824;5.644;2022-10-16T02:36:38;1.38;;;0.60;;
36259;SDS011;22296;50.824;5.644;2022-10-16T02:39:08;0.52;;;0.50;;
36259;SDS011;22296;50.824;5.644;2022-10-16T02:41:36;0.52;;;0.50;;
36259;SDS011;22296;50.824;5.644;2022-10-16T02:44:02;0.77;;;0.47;;
36259;SDS011;22296;50.824;5.644;2022-10-16T02:46:29;0.73;;;0.52;;
36259;SDS011;22296;50.824;5.644;2022-10-16T02:48:56;0.45;;;0.40;;
36259;SDS011;22296;50.824;5.644;2022-10-16T02:51:23;1.10;;;0.65;;
36259;SDS011;22296;50.824;5.644;2022-10-16T02:53:49;0.68;;;0.43;;
36259;SDS011;22296;50.824;5.644;2022-10-16T02:56:16;0.63;;;0.40;;
36259;SDS011;22296;50.824;5.644;2022-10-16T02:58:47;1.17;;;0.60;;
36259;SDS011;22296;50.824;5.644;2022-10-16T03:01:14;0.65;;;0.40;;
36259;SDS011;22296;50.824;5.644;2022-10-16T03:03:43;0.50;;;0.43;;
36259;SDS011;22296;50.824;5.644;2022-10-16T03:06:09;0.60;;;0.50;;
36259;SDS011;22296;50.824;5.644;2022-10-16T03:08:37;1.42;;;0.55;;
36259;SDS011;22296;50.824;5.644;2022-10-16T03:11:04;0.70;;;0.40;;
36259;SDS011;22296;50.824;5.644;2022-10-16T03:13:31;0.60;;;0.40;;
36259;SDS011;22296;50.824;5.644;2022-10-16T03:15:57;0.40;;;0.32;;
36259;SDS011;22296;50.824;5.644;2022-10-16T03:18:24;0.65;;;0.52;;
36259;SDS011;22296;50.824;5.644;2022-10-16T03:20:51;0.57;;;0.47;;
36259;SDS011;22296;50.824;5.644;2022-10-16T03:23:17;1.38;;;0.77;;
36259;SDS011;22296;50.824;5.644;2022-10-16T03:25:44;1.13;;;0.45;;
36259;SDS011;22296;50.824;5.644;2022-10-16T03:28:17;0.60;;;0.40;;
36259;SDS011;22296;50.824;5.644;2022-10-16T03:30:43;0.50;;;0.40;;
36259;SDS011;22296;50.824;5.644;2022-10-16T03:33:10;1.45;;;0.47;;
36259;SDS011;22296;50.824;5.644;2022-10-16T03:35:37;0.80;;;0.45;;
36259;SDS011;22296;50.824;5.644;2022-10-16T03:38:04;0.40;;;0.35;;
36259;SDS011;22296;50.824;5.644;2022-10-16T03:40:31;0.60;;;0.60;;
36259;SDS011;22296;50.824;5.644;2022-10-16T03:42:58;0.55;;;0.45;;
36259;SDS011;22296;50.824;5.644;2022-10-16T03:45:25;1.02;;;0.73;;
36259;SDS011;22296;50.824;5.644;2022-10-16T03:47:53;1.13;;;0.52;;
36259;SDS011;22296;50.824;5.644;2022-10-16T03:50:20;1.10;;;0.50;;
36259;SDS011;22296;50.824;5.644;2022-10-16T03:52:46;1.13;;;0.50;;
36259;SDS011;22296;50.824;5.644;2022-10-16T03:55:13;0.47;;;0.30;;
36259;SDS011;22296;50.824;5.644;2022-10-16T03:57:40;0.90;;;0.50;;
36259;SDS011;22296;50.824;5.644;2022-10-16T04:00:07;0.73;;;0.40;;
36259;SDS011;22296;50.824;5.644;2022-10-16T04:02:40;0.45;;;0.32;;
36259;SDS011;22296;50.824;5.644;2022-10-16T04:05:07;0.85;;;0.40;;
36259;SDS011;22296;50.824;5.644;2022-10-16T04:07:34;1.80;;;0.50;;
36259;SDS011;22296;50.824;5.644;2022-10-16T04:10:01;0.50;;;0.43;;
36259;SDS011;22296;50.824;5.644;2022-10-16T04:12:28;0.50;;;0.40;;
36259;SDS011;22296;50.824;5.644;2022-10-16T04:14:55;0.45;;;0.40;;
36259;SDS011;22296;50.824;5.644;2022-10-16T04:17:22;1.23;;;0.40;;
36259;SDS011;22296;50.824;5.644;2022-10-16T04:19:49;1.27;;;0.70;;
36259;SDS011;22296;50.824;5.644;2022-10-16T04:22:16;0.75;;;0.40;;
36259;SDS011;22296;50.824;5.644;2022-10-16T04:24:43;0.60;;;0.47;;
36259;SDS011;22296;50.824;5.644;2022-10-16T04:27:09;1.33;;;0.38;;
36259;SDS011;22296;50.824;5.644;2022-10-16T04:29:36;0.40;;;0.30;;
36259;SDS011;22296;50.824;5.644;2022-10-16T04:32:03;1.55;;;0.43;;
36259;SDS011;22296;50.824;5.644;2022-10-16T04:34:29;1.95;;;0.50;;
36259;SDS011;22296;50.824;5.644;2022-10-16T04:36:56;0.50;;;0.50;;
36259;SDS011;22296;50.824;5.644;2022-10-16T04:39:23;1.10;;;0.45;;
36259;SDS011;22296;50.824;5.644;2022-10-16T04:41:49;1.13;;;0.50;;
36259;SDS011;22296;50.824;5.644;2022-10-16T04:44:16;0.32;;;0.32;;
36259;SDS011;22296;50.824;5.644;2022-10-16T04:46:43;0.60;;;0.50;;
36259;SDS011;22296;50.824;5.644;2022-10-16T04:49:10;0.85;;;0.57;;
36259;SDS011;22296;50.824;5.644;2022-10-16T04:51:37;1.52;;;0.52;;
36259;SDS011;22296;50.824;5.644;2022-10-16T04:54:04;0.52;;;0.35;;
36259;SDS011;22296;50.824;5.644;2022-10-16T04:56:30;0.80;;;0.40;;
36259;SDS011;22296;50.824;5.644;2022-10-16T04:58:57;0.70;;;0.47;;
36259;SDS011;22296;50.824;5.644;2022-10-16T05:01:24;1.15;;;0.45;;
36259;SDS011;22296;50.824;5.644;2022-10-16T05:03:50;0.88;;;0.50;;
36259;SDS011;22296;50.824;5.644;2022-10-16T05:06:17;1.60;;;0.93;;
36259;SDS011;22296;50.824;5.644;2022-10-16T05:08:43;0.70;;;0.50;;
36259;SDS011;22296;50.824;5.644;2022-10-16T05:11:10;0.70;;;0.50;;
36259;SDS011;22296;50.824;5.644;2022-10-16T05:13:36;0.68;;;0.55;;
36259;SDS011;22296;50.824;5.644;2022-10-16T05:16:03;1.63;;;0.50;;
36259;SDS011;22296;50.824;5.644;2022-10-16T05:18:30;0.80;;;0.40;;
36259;SDS011;22296;50.824;5.644;2022-10-16T05:20:57;0.40;;;0.40;;
36259;SDS011;22296;50.824;5.644;2022-10-16T05:23:23;1.38;;;0.52;;
36259;SDS011;22296;50.824;5.644;2022-10-16T05:25:54;1.38;;;0.50;;
36259;SDS011;22296;50.824;5.644;2022-10-16T05:28:24;1.70;;;0.70;;
36259;SDS011;22296;50.824;5.644;2022-10-16T05:30:51;0.47;;;0.47;;
36259;SDS011;22296;50.824;5.644;2022-10-16T05:33:23;0.60;;;0.50;;
36259;SDS011;22296;50.824;5.644;2022-10-16T05:35:51;1.40;;;0.50;;
36259;SDS011;22296;50.824;5.644;2022-10-16T05:38:18;1.00;;;0.50;;
36259;SDS011;22296;50.824;5.644;2022-10-16T05:40:50;1.42;;;0.65;;
36259;SDS011;22296;50.824;5.644;2022-10-16T05:43:18;1.60;;;0.73;;
36259;SDS011;22296;50.824;5.644;2022-10-16T05:45:53;0.80;;;0.70;;
36259;SDS011;22296;50.824;5.644;2022-10-16T05:48:21;0.73;;;0.57;;
36259;SDS011;22296;50.824;5.644;2022-10-16T05:50:48;0.57;;;0.57;;
36259;SDS011;22296;50.824;5.644;2022-10-16T05:53:22;3.65;;;0.60;;
36259;SDS011;22296;50.824;5.644;2022-10-16T05:55:52;1.02;;;0.70;;
36259;SDS011;22296;50.824;5.644;2022-10-16T05:58:19;1.30;;;0.65;;
36259;SDS011;22296;50.824;5.644;2022-10-16T06:00:59;1.73;;;0.57;;
36259;SDS011;22296;50.824;5.644;2022-10-16T06:03:27;3.50;;;0.70;;
36259;SDS011;22296;50.824;5.644;2022-10-16T06:05:54;0.30;;;0.30;;
36259;SDS011;22296;50.824;5.644;2022-10-16T06:08:21;1.90;;;0.50;;
36259;SDS011;22296;50.824;5.644;2022-10-16T06:10:49;0.90;;;0.50;;
36259;SDS011;22296;50.824;5.644;2022-10-16T06:13:27;1.27;;;0.47;;
36259;SDS011;22296;50.824;5.644;2022-10-16T06:15:56;0.95;;;0.70;;
36259;SDS011;22296;50.824;5.644;2022-10-16T06:18:25;0.77;;;0.50;;
36259;SDS011;22296;50.824;5.644;2022-10-16T06:20:53;0.40;;;0.40;;
36259;SDS011;22296;50.824;5.644;2022-10-16T06:23:20;0.65;;;0.40;;
36259;SDS011;22296;50.824;5.644;2022-10-16T06:25:47;0.55;;;0.40;;
36259;SDS011;22296;50.824;5.644;2022-10-16T06:28:14;0.50;;;0.50;;
36259;SDS011;22296;50.824;5.644;2022-10-16T06:30:41;0.52;;;0.47;;
36259;SDS011;22296;50.824;5.644;2022-10-16T06:33:12;1.20;;;0.70;;
36259;SDS011;22296;50.824;5.644;2022-10-16T06:35:38;0.80;;;0.40;;
36259;SDS011;22296;50.824;5.644;2022-10-16T06:38:05;0.50;;;0.40;;
36259;SDS011;22296;50.824;5.644;2022-10-16T06:40:32;0.80;;;0.50;;
36259;SDS011;22296;50.824;5.644;2022-10-16T06:42:58;1.33;;;0.60;;
36259;SDS011;22296;50.824;5.644;2022-10-16T06:45:25;0.68;;;0.50;;
36259;SDS011;22296;50.824;5.644;2022-10-16T06:47:55;0.55;;;0.50;;
36259;SDS011;22296;50.824;5.644;2022-10-16T06:50:22;1.77;;;0.50;;
36259;SDS011;22296;50.824;5.644;2022-10-16T06:52:49;0.50;;;0.45;;
36259;SDS011;22296;50.824;5.644;2022-10-16T06:55:16;0.70;;;0.50;;
36259;SDS011;22296;50.824;5.644;2022-10-16T06:57:43;1.08;;;0.52;;
36259;SDS011;22296;50.824;5.644;2022-10-16T07:00:12;2.95;;;0.50;;
36259;SDS011;22296;50.824;5.644;2022-10-16T07:02:39;0.47;;;0.40;;
36259;SDS011;22296;50.824;5.644;2022-10-16T07:05:06;0.65;;;0.40;;
36259;SDS011;22296;50.824;5.644;2022-10-16T07:07:33;2.15;;;0.55;;
36259;SDS011;22296;50.824;5.644;2022-10-16T07:09:59;1.42;;;0.50;;
36259;SDS011;22296;50.824;5.644;2022-10-16T07:12:26;0.73;;;0.40;;
36259;SDS011;22296;50.824;5.644;2022-10-16T07:14:54;0.57;;;0.40;;
36259;SDS011;22296;50.824;5.644;2022-10-16T07:17:21;0.55;;;0.32;;
36259;SDS011;22296;50.824;5.644;2022-10-16T07:19:48;1.13;;;0.40;;
36259;SDS011;22296;50.824;5.644;2022-10-16T07:22:15;0.88;;;0.40;;
36259;SDS011;22296;50.824;5.644;2022-10-16T07:24:41;0.70;;;0.60;;
36259;SDS011;22296;50.824;5.644;2022-10-16T07:27:13;1.48;;;0.50;;
36259;SDS011;22296;50.824;5.644;2022-10-16T07:29:40;1.02;;;0.52;;
36259;SDS011;22296;50.824;5.644;2022-10-16T07:32:07;0.63;;;0.50;;
36259;SDS011;22296;50.824;5.644;2022-10-16T07:34:34;0.93;;;0.50;;
36259;SDS011;22296;50.824;5.644;2022-10-16T07:37:01;0.60;;;0.50;;
36259;SDS011;22296;50.824;5.644;2022-10-16T07:39:27;1.05;;;0.45;;
36259;SDS011;22296;50.824;5.644;2022-10-16T07:41:54;4.20;;;0.38;;
36259;SDS011;22296;50.824;5.644;2022-10-16T07:44:22;3.28;;;0.68;;
36259;SDS011;22296;50.824;5.644;2022-10-16T07:46:49;1.75;;;0.50;;
36259;SDS011;22296;50.824;5.644;2022-10-16T07:49:16;1.70;;;0.50;;
36259;SDS011;22296;50.824;5.644;2022-10-16T07:51:42;3.45;;;0.50;;
36259;SDS011;22296;50.824;5.644;2022-10-16T07:54:09;2.35;;;0.65;;
36259;SDS011;22296;50.824;5.644;2022-10-16T07:56:36;0.60;;;0.50;;
36259;SDS011;22296;50.824;5.644;2022-10-16T07:59:08;0.60;;;0.40;;
36259;SDS011;22296;50.824;5.644;2022-10-16T08:01:53;0.82;;;0.45;;
36259;SDS011;22296;50.824;5.644;2022-10-16T08:04:19;1.45;;;0.43;;
36259;SDS011;22296;50.824;5.644;2022-10-16T08:06:46;1.90;;;0.50;;
36259;SDS011;22296;50.824;5.644;2022-10-16T08:09:13;0.50;;;0.40;;
36259;SDS011;22296;50.824;5.644;2022-10-16T08:11:40;2.05;;;0.60;;
36259;SDS011;22296;50.824;5.644;2022-10-16T08:14:07;0.70;;;0.45;;
36259;SDS011;22296;50.824;5.644;2022-10-16T08:16:34;0.70;;;0.60;;
36259;SDS011;22296;50.824;5.644;2022-10-16T08:19:00;2.25;;;0.65;;
36259;SDS011;22296;50.824;5.644;2022-10-16T08:21:27;0.77;;;0.50;;
36259;SDS011;22296;50.824;5.644;2022-10-16T08:23:54;1.40;;;0.68;;
36259;SDS011;22296;50.824;5.644;2022-10-16T08:26:24;1.42;;;0.40;;
36259;SDS011;22296;50.824;5.644;2022-10-16T08:28:51;1.75;;;0.50;;
36259;SDS011;22296;50.824;5.644;2022-10-16T08:31:18;0.60;;;0.50;;
36259;SDS011;22296;50.824;5.644;2022-10-16T08:33:46;0.50;;;0.50;;
36259;SDS011;22296;50.824;5.644;2022-10-16T08:36:14;0.85;;;0.50;;
36259;SDS011;22296;50.824;5.644;2022-10-16T08:38:41;1.42;;;0.60;;
36259;SDS011;22296;50.824;5.644;2022-10-16T08:41:27;2.58;;;0.60;;
36259;SDS011;22296;50.824;5.644;2022-10-16T08:44:25;1.52;;;0.50;;
36259;SDS011;22296;50.824;5.644;2022-10-16T08:49:38;1.25;;;0.50;;
36259;SDS011;22296;50.824;5.644;2022-10-16T08:52:12;1.60;;;0.50;;
36259;SDS011;22296;50.824;5.644;2022-10-16T08:54:41;0.65;;;0.40;;
36259;SDS011;22296;50.824;5.644;2022-10-16T08:57:12;2.20;;;0.50;;
36259;SDS011;22296;50.824;5.644;2022-10-16T08:59:49;3.22;;;0.68;;
36259;SDS011;22296;50.824;5.644;2022-10-16T09:02:22;1.05;;;0.52;;
36259;SDS011;22296;50.824;5.644;2022-10-16T09:13:21;2.03;;;0.50;;
36259;SDS011;22296;50.824;5.644;2022-10-16T09:23:44;1.38;;;0.40;;
36259;SDS011;22296;50.824;5.644;2022-10-16T09:26:12;1.33;;;0.47;;
36259;SDS011;22296;50.824;5.644;2022-10-16T09:28:40;0.53;;;0.50;;
36259;SDS011;22296;50.824;5.644;2022-10-16T09:31:10;0.65;;;0.40;;
36259;SDS011;22296;50.824;5.644;2022-10-16T09:33:41;1.25;;;0.50;;
36259;SDS011;22296;50.824;5.644;2022-10-16T09:36:09;0.70;;;0.40;;
36259;SDS011;22296;50.824;5.644;2022-10-16T09:38:38;0.55;;;0.47;;
36259;SDS011;22296;50.824;5.644;2022-10-16T09:41:14;0.95;;;0.57;;
36259;SDS011;22296;50.824;5.644;2022-10-16T09:43:56;0.93;;;0.55;;
36259;SDS011;22296;50.824;5.644;2022-10-16T09:46:26;1.33;;;0.60;;
36259;SDS011;22296;50.824;5.644;2022-10-16T09:49:02;0.90;;;0.57;;
36259;SDS011;22296;50.824;5.644;2022-10-16T09:51:34;1.25;;;0.60;;
36259;SDS011;22296;50.824;5.644;2022-10-16T09:54:12;1.13;;;0.70;;
36259;SDS011;22296;50.824;5.644;2022-10-16T09:56:39;1.45;;;0.57;;
36259;SDS011;22296;50.824;5.644;2022-10-16T09:59:13;1.92;;;0.70;;
36259;SDS011;22296;50.824;5.644;2022-10-16T10:01:51;1.92;;;0.65;;
36259;SDS011;22296;50.824;5.644;2022-10-16T10:04:19;0.85;;;0.50;;
36259;SDS011;22296;50.824;5.644;2022-10-16T10:06:51;1.47;;;0.47;;
36259;SDS011;22296;50.824;5.644;2022-10-16T10:11:56;0.65;;;0.50;;
36259;SDS011;22296;50.824;5.644;2022-10-16T10:14:30;0.98;;;0.50;;
36259;SDS011;22296;50.824;5.644;2022-10-16T10:38:35;1.15;;;0.70;;
36259;SDS011;22296;50.824;5.644;2022-10-16T10:41:27;1.15;;;0.60;;
36259;SDS011;22296;50.824;5.644;2022-10-16T10:46:51;1.75;;;0.75;;
36259;SDS011;22296;50.824;5.644;2022-10-16T11:00:56;1.83;;;0.67;;
36259;SDS011;22296;50.824;5.644;2022-10-16T11:03:33;2.55;;;0.90;;
36259;SDS011;22296;50.824;5.644;2022-10-16T11:06:07;0.70;;;0.60;;
36259;SDS011;22296;50.824;5.644;2022-10-16T11:08:40;0.85;;;0.70;;
36259;SDS011;22296;50.824;5.644;2022-10-16T11:11:11;0.82;;;0.60;;
36259;SDS011;22296;50.824;5.644;2022-10-16T11:13:49;0.93;;;0.80;;
36259;SDS011;22296;50.824;5.644;2022-10-16T11:16:25;0.75;;;0.60;;
36259;SDS011;22296;50.824;5.644;2022-10-16T11:18:56;1.80;;;0.63;;
36259;SDS011;22296;50.824;5.644;2022-10-16T11:21:29;0.88;;;0.70;;
36259;SDS011;22296;50.824;5.644;2022-10-16T11:24:04;1.98;;;0.70;;
36259;SDS011;22296;50.824;5.644;2022-10-16T11:26:42;0.80;;;0.60;;
36259;SDS011;22296;50.824;5.644;2022-10-16T11:29:17;1.27;;;0.70;;
36259;SDS011;22296;50.824;5.644;2022-10-16T11:31:55;1.17;;;0.60;;
36259;SDS011;22296;50.824;5.644;2022-10-16T11:39:46;2.35;;;0.70;;
36259;SDS011;22296;50.824;5.644;2022-10-16T11:42:18;1.05;;;0.80;;
36259;SDS011;22296;50.824;5.644;2022-10-16T11:44:54;1.00;;;0.60;;
36259;SDS011;22296;50.824;5.644;2022-10-16T11:47:26;1.60;;;0.85;;
36259;SDS011;22296;50.824;5.644;2022-10-16T11:55:41;0.77;;;0.77;;
36259;SDS011;22296;50.824;5.644;2022-10-16T11:58:19;1.77;;;0.93;;
36259;SDS011;22296;50.824;5.644;2022-10-16T12:00:55;1.33;;;0.70;;
36259;SDS011;22296;50.824;5.644;2022-10-16T12:09:25;1.95;;;0.70;;
36259;SDS011;22296;50.824;5.644;2022-10-16T12:11:55;1.40;;;0.73;;
36259;SDS011;22296;50.824;5.644;2022-10-16T12:16:59;1.15;;;0.60;;
36259;SDS011;22296;50.824;5.644;2022-10-16T12:19:29;1.15;;;0.60;;
36259;SDS011;22296;50.824;5.644;2022-10-16T12:21:57;0.60;;;0.60;;
36259;SDS011;22296;50.824;5.644;2022-10-16T12:26:58;0.80;;;0.57;;
36259;SDS011;22296;50.824;5.644;2022-10-16T12:29:38;0.90;;;0.50;;
36259;SDS011;22296;50.824;5.644;2022-10-16T12:32:22;1.00;;;0.70;;
36259;SDS011;22296;50.824;5.644;2022-10-16T12:35:20;1.02;;;0.65;;
36259;SDS011;22296;50.824;5.644;2022-10-16T12:37:49;0.60;;;0.40;;
36259;SDS011;22296;50.824;5.644;2022-10-16T12:40:24;0.95;;;0.75;;
36259;SDS011;22296;50.824;5.644;2022-10-16T12:42:55;0.70;;;0.50;;
36259;SDS011;22296;50.824;5.644;2022-10-16T12:45:31;1.00;;;0.55;;
36259;SDS011;22296;50.824;5.644;2022-10-16T12:48:00;0.98;;;0.60;;
36259;SDS011;22296;50.824;5.644;2022-10-16T12:50:38;1.13;;;0.73;;
36259;SDS011;22296;50.824;5.644;2022-10-16T12:53:25;0.80;;;0.80;;
36259;SDS011;22296;50.824;5.644;2022-10-16T12:55:56;0.70;;;0.60;;
36259;SDS011;22296;50.824;5.644;2022-10-16T12:58:29;1.27;;;0.60;;
36259;SDS011;22296;50.824;5.644;2022-10-16T13:06:46;1.10;;;0.60;;
36259;SDS011;22296;50.824;5.644;2022-10-16T13:09:21;1.05;;;0.57;;
36259;SDS011;22296;50.824;5.644;2022-10-16T13:17:30;1.10;;;0.70;;
36259;SDS011;22296;50.824;5.644;2022-10-16T13:20:21;1.08;;;0.70;;
36259;SDS011;22296;50.824;5.644;2022-10-16T13:28:39;0.70;;;0.60;;
36259;SDS011;22296;50.824;5.644;2022-10-16T13:31:11;1.70;;;0.82;;
36259;SDS011;22296;50.824;5.644;2022-10-16T13:33:45;1.05;;;0.75;;
36259;SDS011;22296;50.824;5.644;2022-10-16T13:36:24;1.77;;;0.88;;
36259;SDS011;22296;50.824;5.644;2022-10-16T13:41:38;0.70;;;0.60;;
36259;SDS011;22296;50.824;5.644;2022-10-16T13:44:07;0.95;;;0.80;;
36259;SDS011;22296;50.824;5.644;2022-10-16T13:46:40;2.08;;;1.10;;
36259;SDS011;22296;50.824;5.644;2022-10-16T13:49:14;1.05;;;0.60;;
36259;SDS011;22296;50.824;5.644;2022-10-16T13:51:54;1.33;;;0.80;;
36259;SDS011;22296;50.824;5.644;2022-10-16T13:54:22;1.13;;;0.80;;
36259;SDS011;22296;50.824;5.644;2022-10-16T13:56:50;0.70;;;0.50;;
36259;SDS011;22296;50.824;5.644;2022-10-16T13:59:36;1.40;;;0.80;;
36259;SDS011;22296;50.824;5.644;2022-10-16T14:02:17;1.05;;;0.73;;
36259;SDS011;22296;50.824;5.644;2022-10-16T14:05:12;2.70;;;0.80;;
36259;SDS011;22296;50.824;5.644;2022-10-16T14:07:40;1.65;;;0.85;;
36259;SDS011;22296;50.824;5.644;2022-10-16T14:13:07;1.27;;;1.05;;
36259;SDS011;22296;50.824;5.644;2022-10-16T14:15:45;1.05;;;0.85;;
36259;SDS011;22296;50.824;5.644;2022-10-16T14:18:19;0.82;;;0.80;;
36259;SDS011;22296;50.824;5.644;2022-10-16T14:20:49;1.35;;;0.82;;
36259;SDS011;22296;50.824;5.644;2022-10-16T14:23:28;1.10;;;0.90;;
36259;SDS011;22296;50.824;5.644;2022-10-16T14:28:33;1.33;;;1.00;;
36259;SDS011;22296;50.824;5.644;2022-10-16T14:31:00;1.30;;;0.80;;
36259;SDS011;22296;50.824;5.644;2022-10-16T14:38:37;1.85;;;1.02;;
36259;SDS011;22296;50.824;5.644;2022-10-16T14:41:06;0.90;;;0.68;;
36259;SDS011;22296;50.824;5.644;2022-10-16T14:43:34;2.15;;;1.00;;
36259;SDS011;22296;50.824;5.644;2022-10-16T14:46:05;1.83;;;1.25;;
36259;SDS011;22296;50.824;5.644;2022-10-16T14:48:41;1.52;;;0.75;;
36259;SDS011;22296;50.824;5.644;2022-10-16T14:51:15;1.02;;;0.80;;
36259;SDS011;22296;50.824;5.644;2022-10-16T14:53:43;1.17;;;0.80;;
36259;SDS011;22296;50.824;5.644;2022-10-16T14:56:15;1.35;;;0.95;;
36259;SDS011;22296;50.824;5.644;2022-10-16T14:58:44;1.20;;;0.95;;
36259;SDS011;22296;50.824;5.644;2022-10-16T15:01:11;1.40;;;0.88;;
36259;SDS011;22296;50.824;5.644;2022-10-16T15:03:38;1.98;;;0.90;;
36259;SDS011;22296;50.824;5.644;2022-10-16T15:06:09;2.47;;;1.10;;
36259;SDS011;22296;50.824;5.644;2022-10-16T15:08:38;1.75;;;1.02;;
36259;SDS011;22296;50.824;5.644;2022-10-16T15:11:07;1.35;;;0.95;;
36259;SDS011;22296;50.824;5.644;2022-10-16T15:13:45;1.35;;;0.80;;
36259;SDS011;22296;50.824;5.644;2022-10-16T15:16:14;1.00;;;0.80;;
36259;SDS011;22296;50.824;5.644;2022-10-16T15:18:42;2.03;;;0.80;;
36259;SDS011;22296;50.824;5.644;2022-10-16T15:21:28;1.98;;;0.80;;
36259;SDS011;22296;50.824;5.644;2022-10-16T15:23:56;1.80;;;0.90;;
36259;SDS011;22296;50.824;5.644;2022-10-16T15:26:24;2.05;;;0.90;;
36259;SDS011;22296;50.824;5.644;2022-10-16T15:28:52;1.83;;;0.93;;
36259;SDS011;22296;50.824;5.644;2022-10-16T15:31:19;1.42;;;0.90;;
36259;SDS011;22296;50.824;5.644;2022-10-16T15:33:51;1.50;;;1.00;;
36259;SDS011;22296;50.824;5.644;2022-10-16T15:36:26;1.35;;;0.80;;
36259;SDS011;22296;50.824;5.644;2022-10-16T15:39:06;2.95;;;1.10;;
36259;SDS011;22296;50.824;5.644;2022-10-16T15:41:39;1.52;;;1.13;;
36259;SDS011;22296;50.824;5.644;2022-10-16T15:44:11;1.40;;;1.00;;
36259;SDS011;22296;50.824;5.644;2022-10-16T15:46:37;1.58;;;1.10;;
36259;SDS011;22296;50.824;5.644;2022-10-16T15:49:04;1.60;;;0.90;;
36259;SDS011;22296;50.824;5.644;2022-10-16T15:51:31;2.05;;;0.90;;
36259;SDS011;22296;50.824;5.644;2022-10-16T15:53:59;1.37;;;0.93;;
36259;SDS011;22296;50.824;5.644;2022-10-16T15:56:28;0.80;;;0.77;;
36259;SDS011;22296;50.824;5.644;2022-10-16T15:58:55;1.23;;;1.00;;
36259;SDS011;22296;50.824;5.644;2022-10-16T16:01:40;1.77;;;0.93;;
36259;SDS011;22296;50.824;5.644;2022-10-16T16:04:07;1.50;;;0.90;;
36259;SDS011;22296;50.824;5.644;2022-10-16T16:06:45;1.77;;;0.93;;
36259;SDS011;22296;50.824;5.644;2022-10-16T16:09:13;1.20;;;0.85;;
36259;SDS011;22296;50.824;5.644;2022-10-16T16:11:40;1.50;;;0.90;;
36259;SDS011;22296;50.824;5.644;2022-10-16T16:14:10;1.33;;;0.90;;
36259;SDS011;22296;50.824;5.644;2022-10-16T16:16:39;1.05;;;0.95;;
36259;SDS011;22296;50.824;5.644;2022-10-16T16:19:05;1.88;;;0.90;;
36259;SDS011;22296;50.824;5.644;2022-10-16T16:21:37;1.67;;;0.80;;
36259;SDS011;22296;50.824;5.644;2022-10-16T16:24:04;1.25;;;0.95;;
36259;SDS011;22296;50.824;5.644;2022-10-16T16:26:35;1.33;;;1.10;;
36259;SDS011;22296;50.824;5.644;2022-10-16T16:29:05;1.50;;;0.90;;
36259;SDS011;22296;50.824;5.644;2022-10-16T16:31:33;2.55;;;0.80;;
36259;SDS011;22296;50.824;5.644;2022-10-16T16:34:01;1.38;;;0.90;;
36259;SDS011;22296;50.824;5.644;2022-10-16T16:36:27;1.48;;;0.75;;
36259;SDS011;22296;50.824;5.644;2022-10-16T16:38:54;1.25;;;0.85;;
36259;SDS011;22296;50.824;5.644;2022-10-16T16:41:22;1.20;;;0.80;;
36259;SDS011;22296;50.824;5.644;2022-10-16T16:43:52;1.38;;;0.90;;
36259;SDS011;22296;50.824;5.644;2022-10-16T16:46:20;1.40;;;1.10;;
36259;SDS011;22296;50.824;5.644;2022-10-16T16:48:48;1.17;;;0.90;;
36259;SDS011;22296;50.824;5.644;2022-10-16T16:51:19;1.60;;;0.85;;
36259;SDS011;22296;50.824;5.644;2022-10-16T16:53:47;1.13;;;0.88;;
36259;SDS011;22296;50.824;5.644;2022-10-16T16:56:16;1.00;;;0.90;;
36259;SDS011;22296;50.824;5.644;2022-10-16T16:58:48;1.33;;;0.85;;
36259;SDS011;22296;50.824;5.644;2022-10-16T17:01:15;1.08;;;0.70;;
36259;SDS011;22296;50.824;5.644;2022-10-16T17:03:48;2.35;;;0.82;;
36259;SDS011;22296;50.824;5.644;2022-10-16T17:06:17;1.23;;;0.70;;
36259;SDS011;22296;50.824;5.644;2022-10-16T17:08:46;1.60;;;0.90;;
36259;SDS011;22296;50.824;5.644;2022-10-16T17:11:15;2.38;;;1.00;;
36259;SDS011;22296;50.824;5.644;2022-10-16T17:13:47;1.30;;;0.80;;
36259;SDS011;22296;50.824;5.644;2022-10-16T17:16:25;1.30;;;0.82;;
36259;SDS011;22296;50.824;5.644;2022-10-16T17:19:00;2.33;;;0.80;;